Time;durP1;ratioP1;P1;durP2;ratioP2;P2;SDS_P1;SDS_P2;PMS_P1;PMS_P2;Temp;Humidity;BMP_temperature;BMP_pressure;BME280_temperature;BME280_humidity;BME280_pressure;Samples;Min_cycle;Max_cycle;Signal;HPM_P1;HPM_P2
2023/02/22 00:00:21;;;;;;;58.47;20.50;;;7.50;99.90;;;;;;5025682;28;25152;-76
2023/02/22 00:02:50;;;;;;;55.47;21.98;;;7.50;99.90;;;;;;5013938;28;25060;-75
2023/02/22 00:05:23;;;;;;;59.63;22.02;;;7.40;99.90;;;;;;5030721;28;25108;-78
2023/02/22 00:07:49;;;;;;;59.92;22.27;;;7.50;99.90;;;;;;5033440;28;25095;-74
2023/02/22 00:10:19;;;;;;;63.20;21.90;;;7.50;99.90;;;;;;5021881;28;25106;-77
2023/02/22 00:12:47;;;;;;;59.63;22.23;;;7.60;99.90;;;;;;5035467;28;25073;-74
2023/02/22 00:15:15;;;;;;;65.30;21.77;;;7.60;99.90;;;;;;5018915;28;25072;-76
2023/02/22 00:17:41;;;;;;;61.72;22.00;;;7.60;99.90;;;;;;5023039;28;25062;-76
2023/02/22 00:20:08;;;;;;;55.65;21.65;;;7.60;99.90;;;;;;5032103;28;25051;-75
2023/02/22 00:22:34;;;;;;;60.25;21.85;;;7.40;99.90;;;;;;5023995;28;25174;-75
2023/02/22 00:25:00;;;;;;;62.22;21.55;;;7.40;99.90;;;;;;5038557;28;25376;-74
2023/02/22 00:27:26;;;;;;;62.45;22.92;;;7.40;99.90;;;;;;5023566;28;25110;-76
2023/02/22 00:29:51;;;;;;;66.05;23.15;;;7.30;99.90;;;;;;5031012;28;25082;-77
2023/02/22 00:32:17;;;;;;;60.60;23.17;;;7.30;99.90;;;;;;5029198;28;25101;-73
2023/02/22 00:34:43;;;;;;;59.83;22.70;;;7.30;99.90;;;;;;5049436;28;25096;-75
2023/02/22 00:37:11;;;;;;;58.90;23.52;;;7.40;99.90;;;;;;5045909;28;25156;-76
2023/02/22 00:39:37;;;;;;;55.40;21.48;;;7.50;99.90;;;;;;5031710;28;25167;-75
2023/02/22 00:42:02;;;;;;;58.65;21.60;;;7.30;99.90;;;;;;5031449;28;25053;-76
2023/02/22 00:44:28;;;;;;;55.30;22.25;;;7.20;99.90;;;;;;5022342;28;25075;-76
2023/02/22 00:46:54;;;;;;;61.47;22.98;;;7.10;99.90;;;;;;5025167;28;25114;-74
2023/02/22 00:49:19;;;;;;;57.88;21.55;;;7.00;99.90;;;;;;5026904;28;25060;-77
2023/02/22 00:51:45;;;;;;;61.65;23.70;;;6.90;99.90;;;;;;5023239;28;25074;-75
2023/02/22 00:54:10;;;;;;;64.63;23.55;;;6.90;99.90;;;;;;5023687;28;25059;-76
2023/02/22 00:56:36;;;;;;;65.28;23.85;;;7.00;99.90;;;;;;5022300;28;25059;-76
2023/02/22 00:59:03;;;;;;;67.25;24.92;;;7.10;99.90;;;;;;5030598;28;25075;-75
2023/02/22 01:01:29;;;;;;;58.50;23.00;;;7.10;99.90;;;;;;5031050;28;25057;-75
2023/02/22 01:03:55;;;;;;;63.00;23.50;;;7.10;99.90;;;;;;5028174;28;25066;-75
2023/02/22 01:06:21;;;;;;;63.00;23.35;;;7.10;99.90;;;;;;5030993;28;25067;-75
2023/02/22 01:08:47;;;;;;;57.95;24.08;;;7.20;99.90;;;;;;5028329;28;25070;-74
2023/02/22 01:11:15;;;;;;;62.17;24.15;;;7.20;99.90;;;;;;5022697;28;24880;-75
2023/02/22 01:13:41;;;;;;;57.10;23.60;;;7.40;99.90;;;;;;5027837;28;25053;-76
2023/02/22 01:16:07;;;;;;;63.35;22.38;;;7.40;99.90;;;;;;5027641;28;25082;-76
2023/02/22 01:18:34;;;;;;;53.92;21.10;;;7.30;99.90;;;;;;5029988;28;25087;-76
2023/02/22 01:21:00;;;;;;;64.32;24.13;;;7.20;99.90;;;;;;5023878;28;25054;-77
2023/02/22 01:23:26;;;;;;;62.75;23.88;;;7.10;99.90;;;;;;5026260;28;25109;-77
2023/02/22 01:25:52;;;;;;;64.60;21.85;;;7.00;99.90;;;;;;5025065;28;25090;-75
2023/02/22 01:28:18;;;;;;;65.65;22.92;;;6.90;99.90;;;;;;5023871;28;25056;-74
2023/02/22 01:30:44;;;;;;;64.50;23.55;;;7.00;99.90;;;;;;5026906;28;25089;-74
2023/02/22 01:33:11;;;;;;;62.95;22.65;;;7.00;99.90;;;;;;5011879;28;25072;-75
2023/02/22 01:35:39;;;;;;;62.38;22.48;;;6.90;99.90;;;;;;5028478;28;25067;-76
2023/02/22 01:38:05;;;;;;;61.75;22.90;;;6.90;99.90;;;;;;5020779;28;25126;-74
2023/02/22 01:40:37;;;;;;;59.75;22.77;;;6.90;99.90;;;;;;5024590;28;25064;-75
2023/02/22 01:43:14;;;;;;;60.30;23.13;;;6.80;99.90;;;;;;5028563;28;25057;-75
2023/02/22 01:45:47;;;;;;;67.05;22.50;;;6.80;99.90;;;;;;5025251;28;25069;-76
2023/02/22 01:48:31;;;;;;;68.97;23.65;;;6.80;99.90;;;;;;5026023;28;25073;-75
2023/02/22 01:51:09;;;;;;;78.63;22.95;;;6.80;99.90;;;;;;5012975;28;25152;-77
2023/02/22 01:53:59;;;;;;;71.40;24.48;;;7.00;99.90;;;;;;5029883;28;25089;-76
2023/02/22 01:56:27;;;;;;;74.18;26.38;;;6.90;99.90;;;;;;5019743;28;25071;-74
2023/02/22 01:59:00;;;;;;;75.82;25.25;;;6.90;99.90;;;;;;5008437;28;25089;-74
2023/02/22 02:01:27;;;;;;;78.28;24.85;;;6.90;99.90;;;;;;5029772;28;25095;-76
2023/02/22 02:03:57;;;;;;;79.97;26.65;;;6.80;99.90;;;;;;5034181;28;25056;-76
2023/02/22 02:06:23;;;;;;;87.32;27.23;;;6.60;99.90;;;;;;5026859;28;25056;-76
2023/02/22 02:08:54;;;;;;;85.95;26.63;;;6.70;99.90;;;;;;5028895;28;25162;-76
2023/02/22 02:11:24;;;;;;;96.53;28.73;;;6.80;99.90;;;;;;5025415;28;25166;-76
2023/02/22 02:13:51;;;;;;;84.82;27.75;;;6.80;99.90;;;;;;5029653;28;25060;-76
2023/02/22 02:16:17;;;;;;;93.28;26.98;;;6.90;99.90;;;;;;5028519;28;25128;-76
2023/02/22 02:18:43;;;;;;;98.65;29.02;;;6.90;99.90;;;;;;5027726;28;25135;-76
2023/02/22 02:21:37;;;;;;;100.40;29.02;;;6.90;99.90;;;;;;5035394;28;25125;-76
2023/02/22 02:24:27;;;;;;;95.68;29.48;;;7.10;99.90;;;;;;5028784;28;25084;-75
2023/02/22 02:27:17;;;;;;;93.78;27.63;;;7.10;99.90;;;;;;5014100;28;25510;-75
2023/02/22 02:29:57;;;;;;;89.95;28.13;;;7.00;99.90;;;;;;5028834;28;25165;-76
2023/02/22 02:32:49;;;;;;;125.03;32.95;;;7.10;99.90;;;;;;5027551;28;25171;-76
2023/02/22 02:35:22;;;;;;;99.25;27.83;;;7.10;99.90;;;;;;5023351;28;25085;-75
2023/02/22 02:37:58;;;;;;;105.78;29.50;;;7.00;99.90;;;;;;5029774;28;25059;-76
2023/02/22 02:40:50;;;;;;;123.63;32.45;;;7.10;99.90;;;;;;5031514;28;25055;-76
2023/02/22 02:43:22;;;;;;;100.13;29.65;;;7.10;99.90;;;;;;5026694;28;25083;-77
2023/02/22 02:46:02;;;;;;;123.60;31.15;;;7.10;99.90;;;;;;5032036;28;25064;-76
2023/02/22 02:48:31;;;;;;;84.60;26.10;;;7.10;99.90;;;;;;5028235;28;25058;-76
2023/02/22 02:50:59;;;;;;;80.97;25.42;;;7.10;99.90;;;;;;5036379;28;25094;-75
2023/02/22 02:53:32;;;;;;;100.70;27.90;;;7.20;99.90;;;;;;5020310;28;25089;-77
2023/02/22 02:55:59;;;;;;;116.68;32.35;;;7.40;99.90;;;;;;5029006;28;25059;-77
2023/02/22 02:58:25;;;;;;;125.57;32.30;;;7.40;99.90;;;;;;5033173;28;25102;-76
2023/02/22 03:00:55;;;;;;;134.52;34.88;;;7.40;99.90;;;;;;5023741;28;25105;-77
2023/02/22 03:03:40;;;;;;;115.22;31.00;;;7.40;99.90;;;;;;5046422;28;25069;-78
2023/02/22 03:06:18;;;;;;;133.52;32.70;;;7.40;99.90;;;;;;5037270;28;25092;-77
2023/02/22 03:09:01;;;;;;;142.07;34.10;;;7.40;99.90;;;;;;5030101;28;25078;-80
2023/02/22 03:11:28;;;;;;;;;;;7.60;99.90;;;;;;5042268;28;25057;-77
2023/02/22 03:14:34;;;;;;;202.63;36.35;;;7.50;99.90;;;;;;5038321;28;25054;-77
2023/02/22 03:17:10;;;;;;;144.60;33.20;;;7.50;99.90;;;;;;4992568;28;25128;-76
2023/02/22 03:19:44;;;;;;;150.32;34.30;;;7.50;99.90;;;;;;5020630;28;25058;-76
2023/02/22 03:22:16;;;;;;;128.98;31.65;;;7.60;99.90;;;;;;5015149;28;25084;-75
2023/02/22 03:24:57;;;;;;;186.18;37.33;;;7.90;99.90;;;;;;5012105;28;25050;-75
2023/02/22 03:27:35;;;;;;;214.98;39.42;;;8.10;99.90;;;;;;5019493;28;25062;-76
2023/02/22 03:30:06;;;;;;;162.63;33.42;;;8.20;99.90;;;;;;5015281;28;25074;-75
2023/02/22 03:32:38;;;;;;;300.00;45.65;;;8.00;99.90;;;;;;5018757;28;25083;-76
2023/02/22 03:35:10;;;;;;;189.20;34.85;;;7.90;99.90;;;;;;5024552;28;25054;-74
2023/02/22 03:37:42;;;;;;;111.40;30.33;;;7.90;99.90;;;;;;5032265;28;25117;-75
2023/02/22 03:40:13;;;;;;;238.55;38.40;;;8.00;99.90;;;;;;5018476;28;25050;-74
2023/02/22 03:42:51;;;;;;;239.23;42.47;;;8.10;99.90;;;;;;5013231;28;25085;-77
2023/02/22 03:45:23;;;;;;;209.85;39.28;;;8.20;99.90;;;;;;5013610;28;25053;-77
2023/02/22 03:47:55;;;;;;;110.20;28.30;;;8.20;99.90;;;;;;5019126;28;25091;-74
2023/02/22 03:50:28;;;;;;;244.95;44.05;;;8.50;99.90;;;;;;5021826;28;25064;-76
2023/02/22 03:52:57;;;;;;;147.20;35.35;;;8.40;99.90;;;;;;5023278;28;25137;-73
2023/02/22 03:55:23;;;;;;;229.82;41.03;;;8.40;99.90;;;;;;5026471;28;25053;-75
2023/02/22 03:57:53;;;;;;;250.50;43.03;;;8.40;99.90;;;;;;5022808;28;25073;-74
2023/02/22 04:00:23;;;;;;;151.50;29.45;;;8.40;99.90;;;;;;5026113;28;25063;-75
2023/02/22 04:02:49;;;;;;;153.63;33.55;;;8.40;99.90;;;;;;5026157;28;25060;-73
2023/02/22 04:05:15;;;;;;;195.25;37.67;;;8.60;99.90;;;;;;5022076;28;25086;-76
2023/02/22 04:07:42;;;;;;;217.30;37.92;;;8.70;99.90;;;;;;5028760;28;25115;-75
2023/02/22 04:10:09;;;;;;;153.38;33.67;;;8.50;99.90;;;;;;5024642;28;25100;-74
2023/02/22 04:12:36;;;;;;;283.80;45.17;;;8.50;99.90;;;;;;5028821;28;25054;-76
2023/02/22 04:15:03;;;;;;;139.48;31.80;;;8.60;99.90;;;;;;5027104;28;25086;-72
2023/02/22 04:17:29;;;;;;;263.20;41.38;;;8.50;99.90;;;;;;5032345;28;25073;-74
2023/02/22 04:19:55;;;;;;;229.93;39.58;;;8.70;99.90;;;;;;5023218;28;25150;-75
2023/02/22 04:22:21;;;;;;;122.18;29.85;;;8.80;99.90;;;;;;5035758;28;25125;-75
2023/02/22 04:24:47;;;;;;;191.05;34.83;;;8.90;99.90;;;;;;5034647;28;25131;-75
2023/02/22 04:27:14;;;;;;;165.30;34.38;;;8.90;99.90;;;;;;5029254;28;25080;-75
2023/02/22 04:29:40;;;;;;;217.35;39.00;;;8.80;99.90;;;;;;5020176;28;25147;-76
2023/02/22 04:32:06;;;;;;;209.13;36.17;;;9.00;99.90;;;;;;5024102;28;25050;-75
2023/02/22 04:34:32;;;;;;;112.40;27.65;;;9.00;99.90;;;;;;5028724;28;25056;-76
2023/02/22 04:36:57;;;;;;;97.22;25.80;;;9.20;99.90;;;;;;5027961;28;25080;-74
2023/02/22 04:39:23;;;;;;;170.65;30.20;;;9.20;99.90;;;;;;5022197;28;25079;-76
2023/02/22 04:41:49;;;;;;;158.80;30.73;;;9.40;99.90;;;;;;5018763;28;25074;-76
2023/02/22 04:44:14;;;;;;;176.05;34.08;;;9.40;99.90;;;;;;5028737;28;25079;-77
2023/02/22 04:46:40;;;;;;;212.52;35.58;;;9.50;99.90;;;;;;5023080;28;25095;-75
2023/02/22 04:49:05;;;;;;;159.95;34.55;;;9.50;99.90;;;;;;5026939;28;25052;-76
2023/02/22 04:51:31;;;;;;;134.52;28.55;;;9.50;99.90;;;;;;5026059;28;25067;-77
2023/02/22 04:53:57;;;;;;;105.75;30.35;;;9.50;99.90;;;;;;5029769;28;25058;-77
2023/02/22 04:56:22;;;;;;;177.18;34.85;;;9.80;99.90;;;;;;4994297;28;25065;-78
2023/02/22 04:58:48;;;;;;;135.55;29.67;;;9.90;99.90;;;;;;5031015;28;25069;-75
2023/02/22 05:01:15;;;;;;;159.50;34.42;;;10.00;99.90;;;;;;5030220;28;25087;-76
2023/02/22 05:03:41;;;;;;;99.47;24.45;;;9.90;99.90;;;;;;5028358;28;25110;-75
2023/02/22 05:06:06;;;;;;;104.68;27.30;;;10.10;99.90;;;;;;5029561;28;25070;-75
2023/02/22 05:08:32;;;;;;;89.70;24.58;;;10.20;99.90;;;;;;5025715;28;25078;-77
2023/02/22 05:10:57;;;;;;;130.82;31.40;;;10.10;99.90;;;;;;5020247;28;25032;-77
2023/02/22 05:13:23;;;;;;;127.75;29.58;;;10.30;99.90;;;;;;5016758;28;25070;-76
2023/02/22 05:15:48;;;;;;;173.68;34.70;;;10.30;99.90;;;;;;5017263;28;25113;-76
2023/02/22 05:18:14;;;;;;;119.03;28.63;;;10.50;99.90;;;;;;5017564;28;25054;-76
2023/02/22 05:20:40;;;;;;;134.77;30.00;;;10.60;99.90;;;;;;5021366;28;25051;-76
2023/02/22 05:23:06;;;;;;;100.97;24.60;;;10.60;99.90;;;;;;5021701;28;25159;-75
2023/02/22 05:25:32;;;;;;;129.52;30.35;;;10.60;99.90;;;;;;5011581;28;25061;-74
2023/02/22 05:28:02;;;;;;;157.60;31.20;;;10.80;99.90;;;;;;5011725;28;25055;-77
2023/02/22 05:30:30;;;;;;;169.73;34.42;;;10.70;99.90;;;;;;5022888;28;25140;-75
2023/02/22 05:32:56;;;;;;;159.48;31.20;;;10.90;99.90;;;;;;5028398;28;25049;-75
2023/02/22 05:35:22;;;;;;;120.18;29.05;;;11.10;99.90;;;;;;5032499;28;25129;-75
2023/02/22 05:37:49;;;;;;;140.90;31.20;;;11.20;99.90;;;;;;5013401;28;25063;-75
2023/02/22 05:40:16;;;;;;;118.70;28.45;;;11.30;99.90;;;;;;5024086;28;25058;-76
2023/02/22 05:42:42;;;;;;;136.52;29.65;;;11.30;99.90;;;;;;5029484;28;25055;-77
2023/02/22 05:45:08;;;;;;;125.95;27.67;;;11.30;99.90;;;;;;5029933;28;25057;-76
2023/02/22 05:47:33;;;;;;;142.63;31.70;;;11.50;99.90;;;;;;5029100;28;25101;-75
2023/02/22 05:50:00;;;;;;;135.48;31.02;;;11.50;99.90;;;;;;5024984;28;25101;-76
2023/02/22 05:52:26;;;;;;;102.45;27.63;;;11.70;99.90;;;;;;5029018;28;25088;-77
2023/02/22 05:54:51;;;;;;;189.10;35.17;;;11.70;99.90;;;;;;5026667;28;25065;-73
2023/02/22 05:57:17;;;;;;;136.82;30.38;;;12.00;99.90;;;;;;5025813;28;25067;-76
2023/02/22 05:59:42;;;;;;;144.73;30.67;;;11.90;99.90;;;;;;5021761;28;25080;-75
2023/02/22 06:02:08;;;;;;;153.02;32.45;;;12.00;99.90;;;;;;5026941;28;25115;-75
2023/02/22 06:04:34;;;;;;;157.55;33.33;;;12.00;99.90;;;;;;5028751;28;25140;-79
2023/02/22 06:06:59;;;;;;;97.82;26.15;;;11.80;99.90;;;;;;5024079;28;25062;-75
2023/02/22 06:09:25;;;;;;;114.68;30.27;;;11.80;99.90;;;;;;5023605;28;25065;-78
2023/02/22 06:11:51;;;;;;;109.95;29.17;;;11.90;99.90;;;;;;5023107;28;25079;-75
2023/02/22 06:14:16;;;;;;;113.50;26.75;;;11.90;99.90;;;;;;5020660;28;25143;-77
2023/02/22 06:16:42;;;;;;;100.47;26.45;;;11.90;99.90;;;;;;5027118;28;25084;-75
2023/02/22 06:19:07;;;;;;;83.60;23.17;;;12.10;99.90;;;;;;5029399;28;25067;-75
2023/02/22 06:21:33;;;;;;;77.03;23.83;;;12.00;99.90;;;;;;5023497;28;25076;-77
2023/02/22 06:24:00;;;;;;;78.05;22.08;;;11.90;99.90;;;;;;5026876;28;25093;-76
2023/02/22 06:26:26;;;;;;;81.00;22.33;;;11.90;99.90;;;;;;5027716;28;25092;-77
2023/02/22 06:28:51;;;;;;;90.82;25.38;;;12.10;99.90;;;;;;5021741;28;25092;-75
2023/02/22 06:31:17;;;;;;;104.05;25.67;;;11.90;99.90;;;;;;5019963;28;25062;-75
2023/02/22 06:33:42;;;;;;;118.90;30.10;;;11.90;99.90;;;;;;5018112;28;25065;-76
2023/02/22 06:36:08;;;;;;;99.45;26.85;;;12.10;99.90;;;;;;5032705;28;25070;-76
2023/02/22 06:38:34;;;;;;;117.00;28.10;;;12.00;99.90;;;;;;5034293;28;25109;-76
2023/02/22 06:40:59;;;;;;;131.75;31.88;;;12.20;99.90;;;;;;5029259;28;25133;-74
2023/02/22 06:43:25;;;;;;;99.53;27.60;;;12.30;99.90;;;;;;5028018;28;25125;-75
2023/02/22 06:45:52;;;;;;;99.15;26.20;;;12.30;99.90;;;;;;5024708;28;25073;-75
2023/02/22 06:48:17;;;;;;;110.45;29.42;;;12.40;99.90;;;;;;5028515;28;25066;-77
2023/02/22 06:50:43;;;;;;;123.25;29.48;;;12.30;99.90;;;;;;5029789;28;25101;-78
2023/02/22 06:53:08;;;;;;;132.38;30.65;;;12.40;99.90;;;;;;5033075;28;25146;-77
2023/02/22 06:55:35;;;;;;;139.30;31.17;;;12.30;99.90;;;;;;5029971;28;25087;-78
2023/02/22 06:58:02;;;;;;;121.90;29.33;;;12.20;99.90;;;;;;5025881;28;25075;-76
2023/02/22 07:00:29;;;;;;;118.25;29.90;;;12.10;99.90;;;;;;5012434;28;25074;-77
2023/02/22 07:02:55;;;;;;;110.03;27.70;;;12.10;99.90;;;;;;5022512;28;25463;-75
2023/02/22 07:05:22;;;;;;;106.10;26.50;;;12.20;99.90;;;;;;5022592;28;25055;-78
2023/02/22 07:07:51;;;;;;;98.65;28.60;;;12.10;99.90;;;;;;5025921;28;25059;-78
2023/02/22 07:10:24;;;;;;;111.25;28.17;;;12.20;99.90;;;;;;5036659;28;25158;-76
2023/02/22 07:12:51;;;;;;;100.55;28.65;;;12.10;99.90;;;;;;5035060;28;25073;-78
2023/02/22 07:15:17;;;;;;;104.55;29.38;;;12.10;99.90;;;;;;5027143;28;25101;-77
2023/02/22 07:17:43;;;;;;;99.05;26.42;;;12.10;99.90;;;;;;5029918;28;25061;-78
2023/02/22 07:20:10;;;;;;;93.78;26.20;;;12.20;99.90;;;;;;5038622;28;25067;-76
2023/02/22 07:22:37;;;;;;;107.53;28.33;;;12.20;99.90;;;;;;5039441;28;25079;-78
2023/02/22 07:25:08;;;;;;;112.60;28.13;;;12.20;99.90;;;;;;5038330;28;25072;-77
2023/02/22 07:27:38;;;;;;;96.65;26.30;;;12.20;99.90;;;;;;5034620;28;25111;-76
2023/02/22 07:30:24;;;;;;;100.88;27.30;;;12.30;99.90;;;;;;5031952;28;25053;-74
2023/02/22 07:32:51;;;;;;;79.20;23.13;;;12.40;99.90;;;;;;5035587;28;25071;-74
2023/02/22 07:35:23;;;;;;;98.68;27.98;;;12.40;99.90;;;;;;5031948;28;25062;-77
2023/02/22 07:37:49;;;;;;;109.00;29.70;;;12.50;99.90;;;;;;5021174;28;25051;-77
2023/02/22 07:40:16;;;;;;;101.95;29.10;;;12.40;99.90;;;;;;5021871;28;25065;-78
2023/02/22 07:42:52;;;;;;;96.93;27.48;;;12.20;99.90;;;;;;5016757;28;25052;-77
2023/02/22 07:45:17;;;;;;;77.22;23.98;;;12.20;99.90;;;;;;5026162;28;25113;-76
2023/02/22 07:47:45;;;;;;;74.60;23.25;;;12.10;99.90;;;;;;5020110;28;25142;-78
2023/02/22 07:50:13;;;;;;;87.43;24.13;;;12.10;99.90;;;;;;5022312;28;25167;-76
2023/02/22 07:52:39;;;;;;;69.78;23.00;;;12.30;99.90;;;;;;5022565;28;25134;-77
2023/02/22 07:55:05;;;;;;;84.35;26.33;;;12.20;99.90;;;;;;5008421;28;25087;-78
2023/02/22 07:57:31;;;;;;;79.78;24.77;;;12.30;99.90;;;;;;5028345;28;25085;-78
2023/02/22 07:59:57;;;;;;;86.72;26.80;;;12.50;99.90;;;;;;5015857;28;25085;-76
2023/02/22 08:02:24;;;;;;;82.97;25.80;;;12.40;99.90;;;;;;5024689;28;25135;-77
2023/02/22 08:04:50;;;;;;;79.70;25.67;;;12.30;99.90;;;;;;5027754;28;25073;-77
2023/02/22 08:07:16;;;;;;;92.18;25.30;;;12.50;99.90;;;;;;5024276;28;25076;-77
2023/02/22 08:09:41;;;;;;;90.78;24.45;;;12.50;99.90;;;;;;5021453;28;25105;-76
2023/02/22 08:12:07;;;;;;;67.00;22.95;;;12.30;99.90;;;;;;5022095;28;25148;-75
2023/02/22 08:14:32;;;;;;;77.93;23.63;;;12.30;99.90;;;;;;5026021;28;25086;-77
2023/02/22 08:16:58;;;;;;;68.95;22.45;;;12.60;99.90;;;;;;5023766;28;25069;-77
2023/02/22 08:19:23;;;;;;;75.22;22.60;;;12.40;99.90;;;;;;5021894;28;25066;-78
2023/02/22 08:21:49;;;;;;;60.35;21.52;;;12.20;99.90;;;;;;5027499;28;25077;-77
2023/02/22 08:24:14;;;;;;;61.55;21.70;;;12.30;99.90;;;;;;5032716;28;25063;-77
2023/02/22 08:26:45;;;;;;;55.85;19.77;;;12.20;99.90;;;;;;5032729;28;25115;-76
2023/02/22 08:29:10;;;;;;;53.28;20.35;;;12.20;99.90;;;;;;5023977;28;25146;-76
2023/02/22 08:31:36;;;;;;;51.85;20.15;;;12.10;99.90;;;;;;5009611;28;25086;-77
2023/02/22 08:34:02;;;;;;;55.42;19.40;;;12.00;99.90;;;;;;5036057;28;25065;-77
2023/02/22 08:36:28;;;;;;;51.85;18.77;;;12.00;99.90;;;;;;5029719;28;25079;-78
2023/02/22 08:38:53;;;;;;;55.60;20.35;;;12.10;99.90;;;;;;5028293;28;25059;-77
2023/02/22 08:41:19;;;;;;;43.85;18.05;;;12.10;99.90;;;;;;5025629;28;25054;-78
2023/02/22 08:43:46;;;;;;;49.33;18.83;;;12.10;99.90;;;;;;5033116;28;25093;-76
2023/02/22 08:46:11;;;;;;;56.13;19.55;;;11.90;99.90;;;;;;5030340;28;25082;-77
2023/02/22 08:48:37;;;;;;;45.63;19.60;;;11.90;99.90;;;;;;5016028;28;25066;-77
2023/02/22 08:51:02;;;;;;;44.63;18.70;;;12.00;99.90;;;;;;5030784;28;25079;-78
2023/02/22 08:53:29;;;;;;;46.42;18.10;;;12.00;99.90;;;;;;5025231;28;25150;-76
2023/02/22 08:55:54;;;;;;;54.10;19.73;;;11.80;99.90;;;;;;5025472;28;25056;-78
2023/02/22 08:58:20;;;;;;;48.72;19.55;;;11.90;99.90;;;;;;5026643;28;25073;-79
2023/02/22 09:00:46;;;;;;;56.03;20.42;;;11.70;99.90;;;;;;5029846;28;25101;-76
2023/02/22 09:03:13;;;;;;;52.53;20.23;;;11.70;99.90;;;;;;5030823;28;25081;-79
2023/02/22 09:05:40;;;;;;;54.67;18.88;;;11.60;99.90;;;;;;5026362;28;25077;-77
2023/02/22 09:08:06;;;;;;;46.80;18.65;;;11.60;99.90;;;;;;5042604;28;25178;-76
2023/02/22 09:10:32;;;;;;;53.03;19.45;;;11.60;99.90;;;;;;5036999;28;25085;-77
2023/02/22 09:12:59;;;;;;;45.65;18.38;;;11.60;99.90;;;;;;5025290;28;25072;-76
2023/02/22 09:15:26;;;;;;;52.92;18.33;;;11.60;99.90;;;;;;5041939;28;25076;-79
2023/02/22 09:17:52;;;;;;;48.90;18.38;;;11.50;99.90;;;;;;5036112;28;25091;-80
2023/02/22 09:20:19;;;;;;;44.38;18.55;;;11.50;99.90;;;;;;5016715;28;25074;-77
2023/02/22 09:22:46;;;;;;;42.45;18.45;;;11.60;99.90;;;;;;5034816;28;25071;-76
2023/02/22 09:25:13;;;;;;;48.85;18.42;;;11.50;99.90;;;;;;5029371;28;25063;-77
2023/02/22 09:27:39;;;;;;;47.30;18.05;;;11.50;99.90;;;;;;5035260;28;25073;-77
2023/02/22 09:30:10;;;;;;;46.15;18.75;;;11.70;99.90;;;;;;5031212;28;25064;-77
2023/02/22 09:32:36;;;;;;;38.63;17.27;;;11.50;99.90;;;;;;5029217;28;25071;-77
2023/02/22 09:35:02;;;;;;;41.03;17.15;;;11.40;99.90;;;;;;5029868;28;25054;-76
2023/02/22 09:37:27;;;;;;;47.88;17.80;;;11.40;99.90;;;;;;5035343;28;25111;-77
2023/02/22 09:39:53;;;;;;;38.85;17.38;;;11.50;99.90;;;;;;5038633;28;25072;-77
2023/02/22 09:42:32;;;;;;;38.83;17.00;;;11.20;99.90;;;;;;5037748;28;25103;-79
2023/02/22 09:45:17;;;;;;;40.88;17.92;;;11.00;99.90;;;;;;5027645;28;25130;-77
2023/02/22 09:47:47;;;;;;;40.65;17.92;;;11.20;99.90;;;;;;5023337;28;25093;-78
2023/02/22 09:50:19;;;;;;;35.30;16.90;;;11.30;99.90;;;;;;5026290;28;25142;-78
2023/02/22 09:52:55;;;;;;;38.28;16.67;;;11.20;99.90;;;;;;5030413;28;25072;-75
2023/02/22 09:55:33;;;;;;;36.72;16.48;;;11.20;99.90;;;;;;5022165;28;25056;-79
2023/02/22 09:58:02;;;;;;;42.05;17.75;;;11.00;99.90;;;;;;5029386;28;25082;-78
2023/02/22 10:00:32;;;;;;;34.50;16.30;;;11.10;99.90;;;;;;5020497;28;25151;-76
2023/02/22 10:03:18;;;;;;;41.90;16.95;;;10.90;99.90;;;;;;5023437;28;25064;-77
2023/02/22 10:06:09;;;;;;;34.72;16.13;;;10.70;99.90;;;;;;5030791;28;25106;-76
2023/02/22 10:08:37;;;;;;;36.58;16.90;;;10.60;99.90;;;;;;5023751;28;25077;-76
2023/02/22 10:11:33;;;;;;;38.63;17.67;;;10.40;99.90;;;;;;5026302;28;25068;-78
2023/02/22 10:14:32;;;;;;;34.83;14.93;;;10.30;99.90;;;;;;5023140;28;25063;-78
2023/02/22 10:17:16;;;;;;;36.38;16.75;;;10.10;99.90;;;;;;5025839;28;25071;-78
2023/02/22 10:20:13;;;;;;;29.65;14.15;;;10.00;99.90;;;;;;5021059;28;25065;-78
2023/02/22 10:22:50;;;;;;;29.65;14.43;;;9.80;99.90;;;;;;5028633;28;25091;-79
2023/02/22 10:25:22;;;;;;;32.97;15.23;;;9.60;99.90;;;;;;5025499;28;25090;-77
2023/02/22 10:28:11;;;;;;;38.92;15.10;;;9.50;99.90;;;;;;5032963;28;25073;-77
2023/02/22 10:30:55;;;;;;;35.10;14.55;;;9.50;99.90;;;;;;5036247;28;25114;-78
2023/02/22 10:33:25;;;;;;;33.08;14.63;;;9.40;99.90;;;;;;5023500;28;25064;-76
2023/02/22 10:35:53;;;;;;;27.58;12.57;;;9.20;99.90;;;;;;4991165;28;25069;-77
2023/02/22 10:38:32;;;;;;;28.83;13.68;;;9.10;99.90;;;;;;5029427;28;25076;-76
2023/02/22 10:41:28;;;;;;;24.92;12.50;;;9.20;99.90;;;;;;5022156;28;25077;-77
2023/02/22 10:43:54;;;;;;;28.60;12.05;;;9.00;99.90;;;;;;5014124;28;25073;-76
2023/02/22 10:46:22;;;;;;;28.13;12.80;;;8.90;99.90;;;;;;5029006;28;25134;-75
2023/02/22 10:48:52;;;;;;;24.48;12.25;;;8.90;99.90;;;;;;5031206;28;25050;-78
2023/02/22 10:51:17;;;;;;;27.10;11.98;;;8.80;99.90;;;;;;5029108;28;25059;-77
2023/02/22 10:53:51;;;;;;;24.23;12.73;;;8.80;99.90;;;;;;5023857;28;25136;-77
2023/02/22 10:56:19;;;;;;;27.08;12.13;;;8.90;99.90;;;;;;5021653;28;25093;-77
2023/02/22 10:58:52;;;;;;;25.77;12.95;;;8.90;99.90;;;;;;5026471;28;25069;-77
2023/02/22 11:01:37;;;;;;;27.27;12.38;;;8.90;99.90;;;;;;5024377;28;25168;-77
2023/02/22 11:04:06;;;;;;;29.63;13.60;;;8.90;99.90;;;;;;5022026;28;25095;-78
2023/02/22 11:06:33;;;;;;;25.95;13.43;;;9.10;99.90;;;;;;5025971;28;25078;-77
2023/02/22 11:09:12;;;;;;;28.90;13.15;;;9.20;99.90;;;;;;5010495;28;25154;-78
2023/02/22 11:11:40;;;;;;;25.33;12.45;;;9.30;99.90;;;;;;5022765;28;25074;-77
2023/02/22 11:14:09;;;;;;;27.35;11.90;;;9.10;99.90;;;;;;5026697;28;25058;-77
2023/02/22 11:16:48;;;;;;;23.98;12.75;;;8.90;99.90;;;;;;5039882;28;25068;-76
2023/02/22 11:19:23;;;;;;;28.33;13.40;;;8.80;99.90;;;;;;5038236;28;25068;-77
2023/02/22 11:22:10;;;;;;;22.98;11.80;;;9.00;99.90;;;;;;5041671;28;25089;-77
2023/02/22 11:24:50;;;;;;;25.88;13.13;;;9.00;99.90;;;;;;5036173;28;25134;-77
2023/02/22 11:27:21;;;;;;;26.70;13.38;;;9.10;99.90;;;;;;5038086;28;25059;-77
2023/02/22 11:29:49;;;;;;;27.73;13.53;;;9.00;99.90;;;;;;5038079;28;25082;-77
2023/02/22 11:32:21;;;;;;;30.33;14.50;;;9.10;99.90;;;;;;5035227;28;25066;-78
2023/02/22 11:34:48;;;;;;;28.20;13.63;;;9.10;99.90;;;;;;5033258;28;25076;-76
2023/02/22 11:37:28;;;;;;;27.55;13.82;;;9.10;99.90;;;;;;5031568;28;25100;-77
2023/02/22 11:40:23;;;;;;;26.20;13.02;;;9.00;99.90;;;;;;5035582;28;25091;-77
2023/02/22 11:43:06;;;;;;;26.73;12.85;;;8.70;99.90;;;;;;5016144;28;25111;-76
2023/02/22 11:45:32;;;;;;;28.95;12.98;;;8.90;99.90;;;;;;5027444;28;25067;-75
2023/02/22 11:48:00;;;;;;;28.08;13.77;;;9.00;99.90;;;;;;5026891;28;25093;-78
2023/02/22 11:50:32;;;;;;;24.15;12.27;;;9.10;99.90;;;;;;5009777;28;25176;-78
2023/02/22 11:53:40;;;;;;;23.35;12.20;;;9.20;99.90;;;;;;5005959;28;25087;-76
2023/02/22 11:56:14;;;;;;;23.00;11.85;;;9.40;99.90;;;;;;4978958;28;25140;-78
2023/02/22 11:58:47;;;;;;;30.35;12.18;;;9.50;99.90;;;;;;5012601;28;25062;-76
2023/02/22 12:01:29;;;;;;;23.80;12.50;;;9.60;99.90;;;;;;5007546;28;25092;-76
2023/02/22 12:04:14;;;;;;;25.83;12.32;;;9.60;99.90;;;;;;5020521;28;25171;-77
2023/02/22 12:06:45;;;;;;;24.48;11.77;;;9.80;99.90;;;;;;5022715;28;25061;-76
2023/02/22 12:09:33;;;;;;;26.33;12.88;;;9.90;99.90;;;;;;5029712;28;25070;-78
2023/02/22 12:12:06;;;;;;;25.95;13.40;;;10.00;99.90;;;;;;5026402;28;25057;-78
2023/02/22 12:14:50;;;;;;;;;;;10.00;99.90;;;;;;5018100;28;25068;-77
2023/02/22 12:17:34;;;;;;;26.25;13.13;;;10.00;99.90;;;;;;5014481;28;25087;-77
2023/02/22 12:20:20;;;;;;;22.35;11.00;;;10.10;99.90;;;;;;5018754;28;25164;-78
2023/02/22 12:22:56;;;;;;;26.35;13.75;;;10.20;99.90;;;;;;5031257;28;25089;-77
2023/02/22 12:25:30;;;;;;;27.85;13.13;;;10.20;99.90;;;;;;5031264;28;25057;-77
2023/02/22 12:28:02;;;;;;;27.38;13.40;;;10.20;99.90;;;;;;5027632;28;25045;-78
2023/02/22 12:30:37;;;;;;;28.48;14.00;;;10.20;99.90;;;;;;5024156;28;25063;-78
2023/02/22 12:33:10;;;;;;;24.83;13.07;;;10.20;99.90;;;;;;5028173;28;25155;-78
2023/02/22 12:35:41;;;;;;;24.45;12.95;;;10.30;99.90;;;;;;5013941;28;25086;-76
2023/02/22 12:38:22;;;;;;;26.75;13.15;;;10.00;99.90;;;;;;5027448;28;25134;-79
2023/02/22 12:40:57;;;;;;;25.08;13.13;;;10.00;99.90;;;;;;5025983;28;25068;-76
2023/02/22 12:43:32;;;;;;;27.88;13.00;;;10.10;99.90;;;;;;5026655;28;25075;-78
2023/02/22 12:46:08;;;;;;;28.08;13.90;;;10.20;99.90;;;;;;5024938;28;25083;-77